Time;durP1;ratioP1;P1;durP2;ratioP2;P2;SDS_P1;SDS_P2;PMS_P1;PMS_P2;Temp;Humidity;BMP_temperature;BMP_pressure;BME280_temperature;BME280_humidity;BME280_pressure;Samples;Min_cycle;Max_cycle;Signal;HPM_P1;HPM_P2
2021/07/31 00:00:23;;;;;;;;;3.67;3.00;;;;;21.81;45.54;100580.13;5076194;27;45456;-60
2021/07/31 00:02:52;;;;;;;;;3.67;3.00;;;;;21.80;45.72;100566.72;5064307;27;45415;-60
2021/07/31 00:05:17;;;;;;;;;2.00;2.00;;;;;21.76;46.05;100576.91;5058698;27;47313;-60
2021/07/31 00:07:43;;;;;;;;;2.33;2.33;;;;;21.74;45.79;100578.84;5077123;28;45606;-61
2021/07/31 00:10:10;;;;;;;;;2.00;2.00;;;;;21.71;46.20;100579.91;5056966;28;45299;-60
2021/07/31 00:12:36;;;;;;;;;3.33;2.00;;;;;21.69;46.43;100579.16;5065709;28;45492;-61
2021/07/31 00:15:02;;;;;;;;;2.00;2.00;;;;;21.68;45.71;100580.13;5073765;27;46982;-61
2021/07/31 00:17:27;;;;;;;;;2.33;2.33;;;;;21.66;45.73;100586.63;5059047;28;45334;-61
2021/07/31 00:19:53;;;;;;;;;1.33;1.33;;;;;21.61;46.10;100578.84;5076358;27;45592;-61
2021/07/31 00:22:18;;;;;;;;;3.00;3.00;;;;;21.58;46.31;100578.16;5076893;27;45409;-61
2021/07/31 00:24:44;;;;;;;;;2.67;2.00;;;;;21.55;46.12;100583.78;5074500;27;47986;-61
2021/07/31 00:27:09;;;;;;;;;4.33;3.00;;;;;21.52;46.50;100578.63;5077379;27;45446;-61
2021/07/31 00:29:35;;;;;;;;;1.00;1.00;;;;;21.50;46.02;100584.13;5077315;27;45385;-61
2021/07/31 00:32:00;;;;;;;;;2.67;2.67;;;;;21.45;46.10;100579.03;5078399;27;45418;-61
2021/07/31 00:34:26;;;;;;;;;1.00;1.00;;;;;21.42;46.03;100576.53;5077138;28;47220;-61
2021/07/31 00:36:52;;;;;;;;;3.00;2.00;;;;;21.40;46.81;100572.22;5078208;28;46017;-60
2021/07/31 00:39:17;;;;;;;;;2.67;2.67;;;;;21.37;46.55;100580.53;5074360;28;45386;-60
2021/07/31 00:41:42;;;;;;;;;3.33;2.00;;;;;21.35;46.42;100586.06;5075124;27;45344;-60
2021/07/31 00:44:08;;;;;;;;;2.00;2.00;;;;;21.33;46.43;100577.16;5061650;28;47305;-60
2021/07/31 00:46:34;;;;;;;;;1.33;1.33;;;;;21.30;46.79;100571.97;5057990;28;45377;-60
2021/07/31 00:48:59;;;;;;;;;1.67;1.67;;;;;21.28;46.45;100581.16;5056317;28;45315;-60
2021/07/31 00:51:25;;;;;;;;;1.67;1.67;;;;;21.27;46.93;100588.41;5056695;28;45477;-61
2021/07/31 00:53:53;;;;;;;;;1.67;1.67;;;;;21.24;46.62;100574.22;5066805;27;47869;-61
2021/07/31 00:56:18;;;;;;;;;1.67;1.67;;;;;21.21;46.87;100577.97;5034859;27;45683;-61
2021/07/31 00:58:44;;;;;;;;;1.00;1.00;;;;;21.20;47.13;100584.34;5059532;27;45451;-60
2021/07/31 01:01:10;;;;;;;;;2.00;2.00;;;;;21.18;46.83;100583.59;5070206;27;45374;-60
2021/07/31 01:03:36;;;;;;;;;3.33;3.33;;;;;21.15;47.34;100587.34;5069104;27;47001;-60
2021/07/31 01:06:01;;;;;;;;;1.67;1.67;;;;;21.12;47.37;100589.41;5076532;27;45314;-61
2021/07/31 01:08:27;;;;;;;;;3.00;1.00;;;;;21.11;47.08;100593.06;5045954;28;45459;-60
2021/07/31 01:10:52;;;;;;;;;2.00;2.00;;;;;21.09;47.10;100589.63;5041459;28;45598;-60
2021/07/31 01:13:19;;;;;;;;;1.00;1.00;;;;;21.06;47.32;100584.41;5073936;27;47796;-60
2021/07/31 01:16:07;;;;;;;;;0.00;0.00;;;;;21.03;47.72;100577.41;5075991;28;45436;-61
2021/07/31 01:18:32;;;;;;;;;1.00;1.00;;;;;21.02;47.92;100580.19;5042699;28;45725;-61
2021/07/31 01:20:58;;;;;;;;;1.00;1.00;;;;;20.99;48.06;100585.81;5073065;27;45315;-61
2021/07/31 01:23:23;;;;;;;;;1.00;1.00;;;;;20.97;48.02;100585.91;5058901;28;47990;-61
2021/07/31 01:25:49;;;;;;;;;3.00;2.00;;;;;20.97;47.71;100585.91;5076031;27;45516;-61
2021/07/31 01:28:15;;;;;;;;;2.00;2.00;;;;;20.99;47.96;100585.81;5080309;27;45643;-61
2021/07/31 01:30:40;;;;;;;;;2.00;1.67;;;;;20.99;48.23;100586.66;5071646;27;45489;-61
2021/07/31 01:33:06;;;;;;;;;1.00;1.00;;;;;20.99;47.82;100586.66;5076365;27;47194;-61
2021/07/31 01:35:31;;;;;;;;;1.00;1.00;;;;;21.02;47.87;100585.59;5079013;27;45962;-61
2021/07/31 01:37:57;;;;;;;;;2.00;2.00;;;;;21.03;47.84;100590.88;5078233;27;45784;-61
2021/07/31 01:40:22;;;;;;;;;1.67;1.33;;;;;21.03;48.39;100593.59;5059824;28;45446;-61
2021/07/31 01:42:48;;;;;;;;;2.00;2.00;;;;;21.04;47.99;100589.91;5078367;27;47210;-61
2021/07/31 01:45:14;;;;;;;;;2.67;2.00;;;;;21.02;48.00;100583.75;5079154;27;45735;-61
2021/07/31 01:47:41;;;;;;;;;3.00;3.00;;;;;21.01;48.53;100587.44;5076210;27;45878;-61
2021/07/31 01:50:07;;;;;;;;;6.00;6.00;;;;;21.00;48.15;100590.22;5075366;27;45469;-61
2021/07/31 01:52:32;;;;;;;;;3.00;2.67;;;;;20.99;48.76;100585.81;5075330;27;48698;-61
2021/07/31 01:54:58;;;;;;;;;4.00;4.00;;;;;20.99;48.32;100588.50;5078528;27;45354;-61
2021/07/31 01:57:23;;;;;;;;;2.00;2.00;;;;;20.98;48.66;100586.78;5062944;28;45918;-60
2021/07/31 01:59:48;;;;;;;;;3.67;1.33;;;;;20.95;48.67;100585.13;5051962;28;45783;-61
2021/07/31 02:02:14;;;;;;;;;2.00;2.00;;;;;20.92;48.40;100593.44;5067662;27;47320;-60
2021/07/31 02:04:39;;;;;;;;;3.00;3.00;;;;;20.90;48.72;100592.66;5079079;27;45349;-61
2021/07/31 02:07:05;;;;;;;;;3.00;3.00;;;;;20.85;48.51;100586.72;5077260;27;45270;-61
2021/07/31 02:09:30;;;;;;;;;2.33;2.00;;;;;20.81;48.81;100588.75;5079291;27;45402;-61
2021/07/31 02:11:56;;;;;;;;;1.00;1.00;;;;;20.77;48.62;100584.53;5076758;27;47282;-61
2021/07/31 02:14:21;;;;;;;;;3.00;3.00;;;;;20.75;49.31;100580.22;5079267;27;45620;-61
2021/07/31 02:16:47;;;;;;;;;2.00;2.00;;;;;20.73;48.79;100583.00;5074521;27;45498;-61
2021/07/31 02:19:12;;;;;;;;;2.67;2.67;;;;;20.72;49.06;100575.03;5079484;27;45583;-61
2021/07/31 02:21:38;;;;;;;;;3.33;2.00;;;;;20.68;48.94;100574.34;5052897;28;47155;-61
2021/07/31 02:24:03;;;;;;;;;1.00;1.00;;;;;20.66;49.17;100572.72;5061805;28;45851;-61
2021/07/31 02:26:29;;;;;;;;;2.67;2.67;;;;;20.62;49.28;100582.84;5077789;27;45786;-61
2021/07/31 02:28:54;;;;;;;;;2.00;1.00;;;;;20.59;49.44;100576.81;5080580;27;45432;-61
2021/07/31 02:31:20;;;;;;;;;2.33;2.33;;;;;20.59;49.94;100579.50;5071555;27;47541;-61
2021/07/31 02:33:45;;;;;;;;;2.00;2.00;;;;;20.56;49.74;100577.84;5079770;27;45481;-61
2021/07/31 02:36:11;;;;;;;;;3.00;3.00;;;;;20.55;49.91;100574.28;5079298;27;45733;-61
2021/07/31 02:38:39;;;;;;;;;2.00;2.00;;;;;20.54;49.55;100579.78;5077608;28;45399;-61
2021/07/31 02:41:05;;;;;;;;;3.33;3.00;;;;;20.54;49.70;100574.38;5071135;27;47929;-61
2021/07/31 02:43:31;;;;;;;;;2.00;2.00;;;;;20.52;49.84;100579.88;5073713;27;45371;-61
2021/07/31 02:46:02;;;;;;;;;2.33;2.33;;;;;20.49;49.81;100571.13;5077975;27;45596;-61
2021/07/31 02:48:28;;;;;;;;;4.00;3.00;;;;;20.47;50.41;100567.69;5079843;27;45437;-61
2021/07/31 02:51:04;;;;;;;;;2.00;2.00;;;;;20.45;50.30;100570.44;5059476;27;47295;-61
2021/07/31 02:53:29;;;;;;;;;3.00;3.00;;;;;20.42;50.03;100564.41;5078878;27;45257;-61
2021/07/31 02:55:55;;;;;;;;;1.33;1.00;;;;;20.42;50.61;100564.41;5077407;27;45434;-61
2021/07/31 02:58:20;;;;;;;;;2.00;1.33;;;;;20.41;50.47;100570.72;5087601;27;45594;-61
2021/07/31 03:00:46;;;;;;;;;2.67;2.00;;;;;20.39;50.26;100570.81;5072274;27;48001;-61
2021/07/31 03:03:11;;;;;;;;;3.00;3.00;;;;;20.40;50.48;100571.69;5062011;27;45352;-61
2021/07/31 03:05:37;;;;;;;;;3.00;3.00;;;;;20.37;50.80;100566.50;5059630;28;45513;-61
2021/07/31 03:08:02;;;;;;;;;3.00;3.00;;;;;20.38;50.93;100568.22;5061044;28;45493;-61
2021/07/31 03:10:28;;;;;;;;;2.00;2.00;;;;;20.37;50.44;100561.13;5077500;27;48380;-61
2021/07/31 03:12:53;;;;;;;;;3.00;3.00;;;;;20.36;50.87;100562.94;5079178;27;45372;-61
2021/07/31 03:15:19;;;;;;;;;2.00;2.00;;;;;20.35;50.80;100566.59;5060916;28;45389;-61
2021/07/31 03:17:44;;;;;;;;;2.00;2.00;;;;;20.33;50.63;100563.16;5078078;27;45552;-61
2021/07/31 03:20:10;;;;;;;;;3.00;2.00;;;;;20.30;50.78;100571.41;5066382;27;47682;-60
2021/07/31 03:22:36;;;;;;;;;4.00;4.00;;;;;20.30;50.66;100568.72;5078838;27;45627;-61
2021/07/31 03:25:01;;;;;;;;;2.00;2.00;;;;;20.29;50.83;100567.84;5060979;28;45509;-61
2021/07/31 03:27:27;;;;;;;;;2.00;2.00;;;;;20.28;51.13;100566.13;5058952;28;45388;-60
2021/07/31 03:29:53;;;;;;;;;3.00;3.00;;;;;20.27;51.03;100575.19;5062844;28;48141;-61
2021/07/31 03:32:18;;;;;;;;;2.00;2.00;;;;;20.26;50.78;100573.44;5079690;27;45773;-60
2021/07/31 03:34:44;;;;;;;;;4.00;3.00;;;;;20.25;51.25;100569.03;5079161;28;45329;-61
2021/07/31 03:37:09;;;;;;;;;2.67;1.00;;;;;20.25;51.15;100568.16;5058094;28;45313;-62
2021/07/31 03:39:35;;;;;;;;;2.00;2.00;;;;;20.26;51.28;100577.97;5058935;28;45774;-61
2021/07/31 03:42:00;;;;;;;;;2.67;2.33;;;;;20.26;51.65;100577.97;5079998;27;46030;-61
2021/07/31 03:44:26;;;;;;;;;2.00;2.00;;;;;20.25;51.50;100570.84;5080114;27;45665;-60
2021/07/31 03:46:51;;;;;;;;;2.00;1.33;;;;;20.24;51.11;100569.13;5078119;27;45757;-61
2021/07/31 03:49:17;;;;;;;;;3.33;2.33;;;;;20.22;51.46;100565.66;5075012;27;48364;-61
2021/07/31 03:51:43;;;;;;;;;2.00;2.00;;;;;20.21;51.24;100574.72;5060979;28;45446;-60
2021/07/31 03:54:08;;;;;;;;;2.67;2.67;;;;;20.22;51.42;100581.84;5042334;28;45630;-61
2021/07/31 03:56:34;;;;;;;;;2.00;2.00;;;;;20.21;51.20;100582.81;5071164;27;45722;-60
2021/07/31 03:58:59;;;;;;;;;2.00;2.00;;;;;20.21;51.21;100586.38;5062282;27;47524;-61
2021/07/31 04:01:26;;;;;;;;;2.33;2.33;;;;;20.20;51.37;100587.31;5049444;28;45378;-61
2021/07/31 04:03:53;;;;;;;;;3.00;2.00;;;;;20.20;51.43;100586.44;5061090;27;45318;-61
2021/07/31 04:06:18;;;;;;;;;3.67;2.00;;;;;20.17;51.44;100592.03;5041418;28;45563;-58
2021/07/31 04:08:44;;;;;;;;;2.00;2.00;;;;;20.14;51.65;100587.69;5059129;27;47231;-59
2021/07/31 04:11:10;;;;;;;;;2.00;2.00;;;;;20.12;51.26;100586.94;5052143;28;45371;-58
2021/07/31 04:13:36;;;;;;;;;2.67;2.67;;;;;20.11;51.48;100582.50;5062719;28;45367;-59
2021/07/31 04:16:06;;;;;;;;;3.67;3.00;;;;;20.11;52.21;100581.66;5066459;27;46749;-59
2021/07/31 04:18:32;;;;;;;;;2.00;2.00;;;;;20.08;51.82;100579.16;5060972;27;47508;-59
2021/07/31 04:20:57;;;;;;;;;2.00;2.00;;;;;20.07;51.93;100577.41;5059193;28;45326;-59
2021/07/31 04:23:23;;;;;;;;;2.00;2.00;;;;;20.06;52.00;100591.84;5060616;27;45346;-59
2021/07/31 04:25:48;;;;;;;;;3.00;3.00;;;;;20.05;51.91;100590.97;5067068;27;45440;-59
2021/07/31 04:28:13;;;;;;;;;2.00;2.00;;;;;20.06;52.20;100581.06;5061945;27;47947;-60
2021/07/31 04:30:39;;;;;;;;;4.67;4.00;;;;;20.04;52.23;100581.16;5070477;27;45356;-59
2021/07/31 04:33:04;;;;;;;;;4.33;3.33;;;;;20.04;52.29;100582.97;5064186;28;45277;-59
2021/07/31 04:35:30;;;;;;;;;5.67;3.00;;;;;20.02;52.26;100587.59;5073601;28;45223;-59
2021/07/31 04:37:55;;;;;;;;;3.67;3.67;;;;;20.01;52.10;100591.28;5072445;28;47099;-60
2021/07/31 04:40:21;;;;;;;;;3.00;2.00;;;;;20.02;52.61;100590.31;5076673;27;45538;-59
2021/07/31 04:42:46;;;;;;;;;3.00;3.00;;;;;20.01;52.34;100593.97;5077377;28;45333;-61
2021/07/31 04:45:12;;;;;;;;;6.00;4.00;;;;;19.99;52.87;100596.75;5072048;27;45384;-60
2021/07/31 04:47:39;;;;;;;;;4.00;3.00;;;;;20.01;52.58;100599.34;5058506;28;46951;-61
2021/07/31 04:50:09;;;;;;;;;5.00;3.67;;;;;20.00;52.56;100598.47;5042617;28;45347;-61
2021/07/31 04:52:35;;;;;;;;;2.00;2.00;;;;;19.99;52.57;100594.06;5044903;28;45613;-59
2021/07/31 04:55:02;;;;;;;;;2.67;2.67;;;;;20.00;52.50;100593.09;5047359;28;45350;-59
2021/07/31 04:57:28;;;;;;;;;5.67;4.67;;;;;20.00;52.65;100601.19;5066249;27;47411;-59
2021/07/31 04:59:53;;;;;;;;;4.00;4.00;;;;;20.00;52.98;100601.19;5070988;27;45359;-59
2021/07/31 05:02:18;;;;;;;;;4.00;4.00;;;;;20.00;52.78;100598.47;5060237;27;47144;-59
2021/07/31 05:04:44;;;;;;;;;4.67;3.00;;;;;20.01;52.88;100592.13;5069721;28;45343;-60
2021/07/31 05:07:10;;;;;;;;;4.00;4.00;;;;;20.03;52.91;100590.19;5036514;27;45540;-60
2021/07/31 05:09:35;;;;;;;;;4.00;4.00;;;;;20.04;52.95;100586.53;5075941;28;45717;-60
2021/07/31 05:12:00;;;;;;;;;2.00;2.00;;;;;20.05;52.95;100593.66;5078155;27;45350;-60
2021/07/31 05:14:27;;;;;;;;;5.67;4.00;;;;;20.06;52.86;100597.22;5076533;28;45365;-60
2021/07/31 05:16:53;;;;;;;;;3.33;3.33;;;;;20.07;53.30;100596.25;5053857;28;48317;-61
2021/07/31 05:19:18;;;;;;;;;4.67;3.00;;;;;20.05;52.76;100600.88;5069169;28;45704;-61
2021/07/31 05:21:44;;;;;;;;;3.00;3.00;;;;;20.06;53.25;100605.31;5070173;28;45536;-61
2021/07/31 05:24:09;;;;;;;;;2.00;2.00;;;;;20.06;53.46;100602.59;5067070;28;45652;-60
2021/07/31 05:26:38;;;;;;;;;4.67;2.67;;;;;20.06;53.12;100603.47;5066851;28;45382;-60
2021/07/31 05:29:07;;;;;;;;;3.00;3.00;;;;;20.06;53.43;100591.84;5066000;28;45361;-63
2021/07/31 05:31:34;;;;;;;;;3.33;3.33;;;;;20.07;53.48;100597.13;5080362;27;46662;-60
2021/07/31 05:34:01;;;;;;;;;3.67;3.67;;;;;20.07;53.04;100597.13;5067532;28;45870;-60
2021/07/31 05:36:26;;;;;;;;;4.33;4.33;;;;;20.08;53.20;100598.00;5030421;28;45519;-60
2021/07/31 05:38:52;;;;;;;;;4.33;2.00;;;;;20.06;53.22;100595.38;5069844;28;45311;-60
2021/07/31 05:41:19;;;;;;;;;3.00;3.00;;;;;20.06;53.67;100595.38;5039413;28;45379;-60
2021/07/31 05:43:46;;;;;;;;;4.00;4.00;;;;;20.05;53.23;100604.44;5069008;28;45508;-60
2021/07/31 05:46:17;;;;;;;;;2.00;2.00;;;;;20.05;53.24;100592.78;5068714;28;47554;-61
2021/07/31 05:48:46;;;;;;;;;4.33;4.33;;;;;20.06;53.57;100599.91;5064444;28;45573;-61
2021/07/31 05:51:13;;;;;;;;;3.00;3.00;;;;;20.05;53.69;100601.75;5068793;27;45457;-61
2021/07/31 05:53:38;;;;;;;;;2.00;2.00;;;;;20.05;53.55;100608.97;5053783;28;45468;-61
2021/07/31 05:56:14;;;;;;;;;2.00;2.00;;;;;20.04;53.32;100610.78;5074906;27;47346;-61
2021/07/31 05:58:40;;;;;;;;;4.00;4.00;;;;;20.03;53.68;100598.28;5066316;27;45351;-62
2021/07/31 06:01:06;;;;;;;;;3.00;3.00;;;;;20.06;53.37;100610.69;5070378;28;45370;-61
2021/07/31 06:03:33;;;;;;;;;5.33;5.00;;;;;20.07;53.97;100612.41;5071773;28;45480;-61
2021/07/31 06:05:58;;;;;;;;;4.00;4.00;;;;;20.09;53.74;100610.53;5073692;28;47000;-63
2021/07/31 06:08:24;;;;;;;;;2.33;2.33;;;;;20.10;53.81;100617.63;5052464;28;45878;-61
2021/07/31 06:10:50;;;;;;;;;4.00;3.00;;;;;20.09;53.56;100606.00;5067223;28;45330;-61
2021/07/31 06:13:15;;;;;;;;;5.00;4.00;;;;;20.10;54.12;100614.94;5065166;28;46146;-61
2021/07/31 06:15:42;;;;;;;;;3.67;3.67;;;;;20.08;54.06;100614.19;5065627;27;47003;-60
2021/07/31 06:18:08;;;;;;;;;3.33;3.33;;;;;20.07;53.66;100610.59;5068842;28;45392;-61
2021/07/31 06:20:34;;;;;;;;;4.67;4.67;;;;;20.09;53.89;100611.38;5062315;27;45990;-60
2021/07/31 06:22:59;;;;;;;;;4.00;4.00;;;;;20.12;53.88;100615.72;5072291;28;45526;-61
2021/07/31 06:25:25;;;;;;;;;4.00;4.00;;;;;20.14;53.81;100617.34;5067705;28;47167;-61
2021/07/31 06:27:54;;;;;;;;;6.00;6.00;;;;;20.18;54.18;100624.25;5066280;28;45389;-61
2021/07/31 06:30:20;;;;;;;;;3.67;3.33;;;;;20.22;54.06;100633.03;5070067;27;45454;-60
2021/07/31 06:32:48;;;;;;;;;7.00;4.33;;;;;20.22;53.63;100633.91;5070582;28;45386;-60
2021/07/31 06:35:14;;;;;;;;;2.00;2.00;;;;;20.22;53.68;100628.50;5074035;27;47578;-61
2021/07/31 06:37:39;;;;;;;;;5.33;5.33;;;;;20.24;53.40;100633.78;5067351;28;45755;-60
2021/07/31 06:40:05;;;;;;;;;4.67;3.33;;;;;20.26;53.66;100631.88;5067446;27;45496;-61
2021/07/31 06:42:31;;;;;;;;;5.33;5.33;;;;;20.28;53.52;100636.19;5067053;28;45495;-61
2021/07/31 06:44:56;;;;;;;;;4.67;4.00;;;;;20.28;53.58;100636.19;5055256;28;48299;-61
2021/07/31 06:47:22;;;;;;;;;3.67;3.67;;;;;20.28;54.09;100630.81;5071150;28;45458;-61
2021/07/31 06:49:47;;;;;;;;;3.67;3.67;;;;;20.30;54.07;100633.41;5055816;28;45479;-61
2021/07/31 06:52:14;;;;;;;;;4.00;4.00;;;;;20.33;54.06;100629.63;5063317;28;45438;-61
2021/07/31 06:54:39;;;;;;;;;5.33;5.33;;;;;20.35;54.07;100641.22;5074667;27;48271;-61
2021/07/31 06:57:09;;;;;;;;;4.00;4.00;;;;;20.36;53.89;100633.03;5041861;28;45595;-65
2021/07/31 06:59:34;;;;;;;;;5.00;5.00;;;;;20.36;53.54;100642.94;5075165;27;45450;-61
2021/07/31 07:01:59;;;;;;;;;7.00;5.67;;;;;20.35;53.79;100634.00;5065807;27;45504;-62
2021/07/31 07:04:25;;;;;;;;;4.33;3.33;;;;;20.34;53.78;100642.19;5066691;27;47528;-61
2021/07/31 07:06:50;;;;;;;;;5.00;5.00;;;;;20.33;53.62;100640.41;5068783;28;45696;-62
2021/07/31 07:09:16;;;;;;;;;3.00;3.00;;;;;20.33;53.70;100644.00;5066651;27;45353;-61
2021/07/31 07:11:43;;;;;;;;;4.00;4.00;;;;;20.38;53.65;100649.09;5070643;27;45514;-60
2021/07/31 07:14:09;;;;;;;;;4.33;4.33;;;;;20.42;53.67;100648.81;5067402;28;47366;-60
2021/07/31 07:16:34;;;;;;;;;4.00;2.67;;;;;20.48;53.32;100647.59;5049671;28;45546;-61
2021/07/31 07:19:00;;;;;;;;;4.00;4.00;;;;;20.53;53.37;100650.84;5062827;27;45450;-60
2021/07/31 07:21:26;;;;;;;;;3.00;3.00;;;;;20.55;53.30;100647.06;5066860;28;45419;-60
2021/07/31 07:23:51;;;;;;;;;4.67;4.67;;;;;20.59;53.27;100658.56;5069966;28;45449;-61
2021/07/31 07:26:17;;;;;;;;;5.00;5.00;;;;;20.64;52.69;100651.00;5061384;28;46010;-60
2021/07/31 07:28:43;;;;;;;;;4.00;4.00;;;;;20.70;53.13;100658.69;5061784;28;45408;-60
2021/07/31 07:31:13;;;;;;;;;4.00;4.00;;;;;20.75;53.01;100658.41;5060863;28;45393;-60
2021/07/31 07:33:40;;;;;;;;;4.67;3.67;;;;;20.80;52.41;100659.84;5058062;27;48169;-60
2021/07/31 07:36:18;;;;;;;;;6.00;6.00;;;;;20.88;52.71;100663.88;5058289;28;45580;-63
2021/07/31 07:38:45;;;;;;;;;6.67;5.00;;;;;20.91;52.56;100656.44;5066348;27;45837;-61
2021/07/31 07:41:12;;;;;;;;;5.00;5.00;;;;;20.98;52.04;100663.19;5050849;28;45468;-60
2021/07/31 07:43:47;;;;;;;;;5.00;5.00;;;;;21.03;51.81;100658.34;5086238;27;45580;-62
2021/07/31 07:46:14;;;;;;;;;5.00;5.00;;;;;21.09;52.18;100662.47;5073990;28;45516;-61
2021/07/31 07:48:41;;;;;;;;;5.00;5.00;;;;;21.15;52.17;100662.06;5082875;27;47119;-61
2021/07/31 07:51:07;;;;;;;;;5.00;5.00;;;;;21.22;51.83;100665.22;5066393;28;46658;-61
2021/07/31 07:53:32;;;;;;;;;3.00;3.00;;;;;21.30;51.29;100660.19;5073608;27;48552;-61
2021/07/31 07:55:58;;;;;;;;;4.00;4.00;;;;;21.38;51.81;100658.72;5074860;27;46295;-60
2021/07/31 07:58:23;;;;;;;;;3.67;3.67;;;;;21.45;51.43;100657.31;5074317;28;45378;-60
2021/07/31 08:00:49;;;;;;;;;5.00;5.00;;;;;21.55;50.90;100654.00;5078323;27;45622;-61
2021/07/31 08:03:14;;;;;;;;;5.00;5.00;;;;;21.60;51.30;100647.34;5081572;27;47311;-61
2021/07/31 08:05:40;;;;;;;;;4.00;4.00;;;;;21.60;51.14;100652.72;5076382;27;45478;-61
2021/07/31 08:08:06;;;;;;;;;9.00;7.67;;;;;21.59;50.82;100655.50;5076662;27;45597;-62
2021/07/31 08:10:32;;;;;;;;;5.00;3.33;;;;;21.61;50.37;100651.75;5071839;27;45460;-62
2021/07/31 08:12:58;;;;;;;;;4.67;4.67;;;;;21.63;50.96;100655.22;5073645;27;48474;-60
2021/07/31 08:15:24;;;;;;;;;6.00;4.33;;;;;21.61;50.26;100657.16;5076435;27;45357;-62
2021/07/31 08:17:49;;;;;;;;;3.67;3.67;;;;;21.58;50.79;100653.78;5074217;28;45429;-62
2021/07/31 08:20:15;;;;;;;;;3.67;3.67;;;;;21.53;50.37;100648.72;5073920;27;45425;-62
2021/07/31 08:22:41;;;;;;;;;5.33;5.33;;;;;21.53;51.20;100654.09;5075553;27;47083;-62
2021/07/31 08:25:08;;;;;;;;;4.00;4.00;;;;;21.55;50.24;100648.59;5074342;27;45391;-61
2021/07/31 08:27:34;;;;;;;;;4.00;4.00;;;;;21.60;50.77;100644.63;5074007;27;46358;-61
2021/07/31 08:29:59;;;;;;;;;5.00;5.00;;;;;21.67;50.23;100658.56;5070135;27;45638;-62
2021/07/31 08:32:25;;;;;;;;;5.67;5.67;;;;;21.67;50.75;100651.31;5073691;27;47219;-62
2021/07/31 08:34:50;;;;;;;;;4.00;4.00;;;;;21.66;50.24;100651.44;5078630;27;45481;-62
2021/07/31 08:37:16;;;;;;;;;5.00;5.00;;;;;21.64;50.47;100654.25;5072409;28;45435;-63
2021/07/31 08:39:42;;;;;;;;;5.00;5.00;;;;;21.65;50.23;100649.72;5074939;27;45408;-60
2021/07/31 08:42:10;;;;;;;;;4.00;4.00;;;;;21.69;50.73;100657.47;5072023;28;47198;-64
2021/07/31 08:44:36;;;;;;;;;5.00;5.00;;;;;21.72;50.15;100646.50;5077847;27;46275;-63
2021/07/31 08:47:04;;;;;;;;;4.33;4.33;;;;;21.80;50.69;100648.63;5074024;27;45224;-63
2021/07/31 08:49:29;;;;;;;;;4.00;4.00;;;;;21.91;50.60;100651.47;5072983;27;45499;-61
2021/07/31 08:51:57;;;;;;;;;4.33;4.33;;;;;21.98;50.16;100636.56;5074160;27;45373;-61
2021/07/31 08:54:22;;;;;;;;;4.00;4.00;;;;;22.04;50.04;100651.47;5064261;27;45315;-61
2021/07/31 08:56:48;;;;;;;;;4.00;4.00;;;;;22.07;49.66;100656.69;5070418;28;45463;-61
2021/07/31 08:59:13;;;;;;;;;3.67;3.67;;;;;22.10;49.25;100648.34;5058838;28;45725;-63
2021/07/31 09:01:39;;;;;;;;;6.00;4.33;;;;;22.14;49.52;100651.72;5058583;28;47564;-61
2021/07/31 09:04:16;;;;;;;;;6.67;5.33;;;;;22.20;49.32;100653.97;5074034;27;45480;-61
2021/07/31 09:06:42;;;;;;;;;6.33;5.33;;;;;22.26;49.43;100659.81;5052360;28;45740;-61
2021/07/31 09:09:08;;;;;;;;;4.00;4.00;;;;;22.31;48.89;100665.75;5060436;28;45820;-61
2021/07/31 09:11:34;;;;;;;;;5.00;4.67;;;;;22.36;48.93;100661.84;5066128;28;48154;-61
2021/07/31 09:14:12;;;;;;;;;3.33;3.33;;;;;22.35;48.95;100660.97;5051345;28;45840;-61
2021/07/31 09:16:39;;;;;;;;;4.67;4.67;;;;;22.34;48.91;100659.25;5060915;28;45321;-61
2021/07/31 09:19:07;;;;;;;;;5.00;5.00;;;;;22.38;48.79;100666.19;5059454;28;45504;-62
2021/07/31 09:21:32;;;;;;;;;5.00;5.00;;;;;22.42;48.66;100662.28;5058748;28;48720;-62
2021/07/31 09:23:58;;;;;;;;;4.33;4.00;;;;;22.46;48.72;100661.09;5057978;28;45994;-62
2021/07/31 09:26:38;;;;;;;;;4.33;4.00;;;;;22.50;48.61;100664.44;5055668;28;45384;-62
2021/07/31 09:29:11;;;;;;;;;5.00;3.33;;;;;22.51;48.09;100661.63;5049856;28;45907;-63
2021/07/31 09:31:55;;;;;;;;;5.67;5.67;;;;;22.55;48.27;100659.56;5055085;28;46801;-63
2021/07/31 09:34:34;;;;;;;;;5.00;4.33;;;;;22.60;48.20;100655.53;5058386;28;45489;-61
2021/07/31 09:37:18;;;;;;;;;3.33;3.33;;;;;22.66;48.54;100650.69;5058657;28;45545;-62
2021/07/31 09:39:57;;;;;;;;;4.00;4.00;;;;;22.73;48.18;100649.22;5057202;28;45322;-62
2021/07/31 09:42:35;;;;;;;;;4.67;4.67;;;;;22.80;47.89;100647.81;5054753;28;47410;-61
2021/07/31 09:45:09;;;;;;;;;3.33;3.33;;;;;22.82;47.62;100649.44;5051036;28;45520;-62
2021/07/31 09:47:36;;;;;;;;;4.67;3.33;;;;;22.87;47.15;100647.28;5073345;27;45909;-62
2021/07/31 09:50:03;;;;;;;;;3.67;3.67;;;;;22.93;47.44;100642.41;5057551;28;45617;-62
2021/07/31 09:52:28;;;;;;;;;4.67;4.67;;;;;22.96;47.43;100642.16;5054875;28;48303;-62
2021/07/31 09:54:57;;;;;;;;;4.00;4.00;;;;;22.98;47.06;100645.59;5041810;28;45665;-62
2021/07/31 09:57:30;;;;;;;;;5.33;4.00;;;;;23.02;47.13;100639.88;5057931;28;45574;-62
2021/07/31 09:59:59;;;;;;;;;3.00;3.00;;;;;23.09;46.95;100637.56;5052733;28;45697;-63
2021/07/31 10:02:26;;;;;;;;;3.00;3.00;;;;;23.17;46.80;100643.25;5055011;28;47667;-62
2021/07/31 10:04:52;;;;;;;;;3.00;3.00;;;;;23.26;47.19;100642.56;5056532;28;45987;-62
2021/07/31 10:07:18;;;;;;;;;3.67;3.67;;;;;23.35;46.93;100624.75;5056334;28;45594;-63
2021/07/31 10:09:48;;;;;;;;;4.00;4.00;;;;;23.45;46.60;100620.34;5052644;28;45600;-60
2021/07/31 10:12:15;;;;;;;;;3.00;3.00;;;;;23.49;46.44;100621.84;5052960;28;47256;-61
2021/07/31 10:14:44;;;;;;;;;3.00;3.00;;;;;23.52;46.47;100618.06;5070360;28;45544;-61
2021/07/31 10:17:11;;;;;;;;;2.67;2.67;;;;;23.55;46.07;100620.53;5051879;28;45711;-61
2021/07/31 10:19:46;;;;;;;;;3.33;3.33;;;;;23.61;45.36;100617.34;5058364;28;45626;-60
2021/07/31 10:22:14;;;;;;;;;2.33;2.33;;;;;23.65;45.62;100611.59;5053880;28;46377;-61
2021/07/31 10:24:59;;;;;;;;;6.67;6.67;;;;;23.71;45.61;100608.41;5056547;28;45844;-61
2021/07/31 10:27:25;;;;;;;;;4.00;4.00;;;;;23.78;45.44;100615.06;5055491;28;45647;-62
2021/07/31 10:29:54;;;;;;;;;4.00;3.00;;;;;23.83;45.23;100611.13;5060687;28;45429;-62
2021/07/31 10:32:20;;;;;;;;;5.00;3.00;;;;;23.87;44.80;100609.91;5051681;28;47336;-62
2021/07/31 10:34:47;;;;;;;;;4.67;3.00;;;;;23.94;45.20;100609.31;5052102;28;45494;-56
2021/07/31 10:37:29;;;;;;;;;5.00;5.00;;;;;24.01;45.02;100607.84;5038802;28;45440;-55
2021/07/31 10:40:01;;;;;;;;;3.00;3.00;;;;;24.03;44.72;100611.28;5044721;28;45478;-54
2021/07/31 10:42:47;;;;;;;;;4.00;4.00;;;;;24.05;44.67;100605.75;5053854;28;47419;-55
2021/07/31 10:45:15;;;;;;;;;3.00;3.00;;;;;24.08;44.17;100611.78;5051614;28;45534;-56
2021/07/31 10:47:58;;;;;;;;;3.33;3.33;;;;;24.08;43.64;100613.63;5056048;28;45481;-55
2021/07/31 10:50:23;;;;;;;;;3.00;3.00;;;;;24.08;43.26;100608.19;5056839;28;45610;-56
2021/07/31 10:53:12;;;;;;;;;2.67;2.67;;;;;24.08;43.31;100609.06;5049207;28;47170;-55
2021/07/31 10:55:38;;;;;;;;;2.67;2.67;;;;;24.07;43.47;100601.91;5038415;28;45472;-56
2021/07/31 10:58:07;;;;;;;;;2.00;2.00;;;;;24.07;43.61;100598.34;5076151;27;45914;-56
2021/07/31 11:00:38;;;;;;;;;4.33;4.33;;;;;24.10;43.56;100598.09;5054237;28;45437;-56
2021/07/31 11:03:24;;;;;;;;;2.00;2.00;;;;;24.12;43.81;100598.81;5054533;28;46102;-56
2021/07/31 11:05:55;;;;;;;;;4.33;4.00;;;;;24.19;43.65;100608.22;5057339;28;45431;-56
2021/07/31 11:08:25;;;;;;;;;4.00;3.67;;;;;24.28;43.56;100606.63;5055913;28;45308;-56
2021/07/31 11:10:52;;;;;;;;;3.33;3.00;;;;;24.36;43.44;100596.88;5058019;28;45549;-57
2021/07/31 11:13:17;;;;;;;;;4.00;3.00;;;;;24.43;42.93;100601.81;5089060;27;48138;-54
2021/07/31 11:16:02;;;;;;;;;4.00;4.00;;;;;24.47;42.93;100590.59;5057771;28;45651;-56
2021/07/31 11:18:34;;;;;;;;;3.00;3.00;;;;;24.54;42.78;100599.09;5050457;28;45396;-57
2021/07/31 11:21:14;;;;;;;;;1.67;1.67;;;;;24.61;42.68;100593.03;5066689;28;45466;-58
2021/07/31 11:23:43;;;;;;;;;4.00;3.00;;;;;24.68;42.34;100592.53;5055527;28;47605;-57